sensor_id;sensor_type;location;lat;lon;timestamp;P1;durP1;ratioP1;P2;durP2;ratioP2
41255;SDS011;26989;45.524;10.938;2023-02-28T00:00:32;8.50;;;4.72;;
41255;SDS011;26989;45.524;10.938;2023-02-28T00:03:00;9.35;;;5.43;;
41255;SDS011;26989;45.524;10.938;2023-02-28T00:05:27;10.38;;;5.85;;
41255;SDS011;26989;45.524;10.938;2023-02-28T00:07:54;5.03;;;3.25;;
41255;SDS011;26989;45.524;10.938;2023-02-28T00:10:22;6.68;;;4.25;;
41255;SDS011;26989;45.524;10.938;2023-02-28T00:12:51;8.88;;;5.53;;
41255;SDS011;26989;45.524;10.938;2023-02-28T00:15:20;10.15;;;5.95;;
41255;SDS011;26989;45.524;10.938;2023-02-28T00:17:48;11.32;;;6.15;;
41255;SDS011;26989;45.524;10.938;2023-02-28T00:20:15;8.07;;;5.10;;
41255;SDS011;26989;45.524;10.938;2023-02-28T00:22:44;10.45;;;5.57;;
41255;SDS011;26989;45.524;10.938;2023-02-28T00:25:13;7.68;;;4.90;;
41255;SDS011;26989;45.524;10.938;2023-02-28T00:27:42;7.10;;;4.82;;
41255;SDS011;26989;45.524;10.938;2023-02-28T00:30:10;9.50;;;5.07;;
41255;SDS011;26989;45.524;10.938;2023-02-28T00:32:39;9.82;;;5.78;;
41255;SDS011;26989;45.524;10.938;2023-02-28T00:35:06;9.27;;;5.10;;
41255;SDS011;26989;45.524;10.938;2023-02-28T00:37:34;7.38;;;5.30;;
41255;SDS011;26989;45.524;10.938;2023-02-28T00:40:01;9.23;;;5.32;;
41255;SDS011;26989;45.524;10.938;2023-02-28T00:42:31;8.02;;;4.95;;
41255;SDS011;26989;45.524;10.938;2023-02-28T00:44:58;11.18;;;6.45;;
41255;SDS011;26989;45.524;10.938;2023-02-28T00:47:25;8.27;;;5.10;;
41255;SDS011;26989;45.524;10.938;2023-02-28T00:49:52;5.75;;;4.30;;
41255;SDS011;26989;45.524;10.938;2023-02-28T00:52:18;8.82;;;5.20;;
41255;SDS011;26989;45.524;10.938;2023-02-28T00:54:45;8.10;;;4.78;;
41255;SDS011;26989;45.524;10.938;2023-02-28T00:57:12;8.23;;;5.20;;
41255;SDS011;26989;45.524;10.938;2023-02-28T00:59:39;6.97;;;4.55;;
41255;SDS011;26989;45.524;10.938;2023-02-28T01:02:06;7.90;;;4.80;;
41255;SDS011;26989;45.524;10.938;2023-02-28T01:04:32;8.10;;;4.53;;
41255;SDS011;26989;45.524;10.938;2023-02-28T01:06:59;5.68;;;4.18;;
41255;SDS011;26989;45.524;10.938;2023-02-28T01:09:26;7.10;;;4.28;;
41255;SDS011;26989;45.524;10.938;2023-02-28T01:11:53;8.95;;;4.53;;
41255;SDS011;26989;45.524;10.938;2023-02-28T01:14:20;6.05;;;3.97;;
41255;SDS011;26989;45.524;10.938;2023-02-28T01:16:47;6.25;;;3.42;;
41255;SDS011;26989;45.524;10.938;2023-02-28T01:19:13;6.97;;;4.35;;
41255;SDS011;26989;45.524;10.938;2023-02-28T01:21:40;8.93;;;4.70;;
41255;SDS011;26989;45.524;10.938;2023-02-28T01:24:07;4.65;;;2.97;;
41255;SDS011;26989;45.524;10.938;2023-02-28T01:26:34;5.38;;;3.15;;
41255;SDS011;26989;45.524;10.938;2023-02-28T01:29:01;4.57;;;3.00;;
41255;SDS011;26989;45.524;10.938;2023-02-28T01:31:29;7.35;;;3.50;;
41255;SDS011;26989;45.524;10.938;2023-02-28T01:33:56;7.15;;;4.28;;
41255;SDS011;26989;45.524;10.938;2023-02-28T01:36:23;7.07;;;3.90;;
41255;SDS011;26989;45.524;10.938;2023-02-28T01:38:51;6.60;;;4.35;;
41255;SDS011;26989;45.524;10.938;2023-02-28T01:41:25;7.35;;;3.25;;
41255;SDS011;26989;45.524;10.938;2023-02-28T01:44:00;6.78;;;3.65;;
41255;SDS011;26989;45.524;10.938;2023-02-28T01:46:32;5.60;;;3.95;;
41255;SDS011;26989;45.524;10.938;2023-02-28T01:49:03;5.68;;;3.33;;
41255;SDS011;26989;45.524;10.938;2023-02-28T01:51:38;6.05;;;4.00;;
41255;SDS011;26989;45.524;10.938;2023-02-28T01:54:18;6.68;;;3.35;;
41255;SDS011;26989;45.524;10.938;2023-02-28T01:56:54;6.20;;;3.47;;
41255;SDS011;26989;45.524;10.938;2023-02-28T01:59:35;4.10;;;3.53;;
41255;SDS011;26989;45.524;10.938;2023-02-28T02:02:12;7.05;;;4.10;;
41255;SDS011;26989;45.524;10.938;2023-02-28T02:04:42;5.50;;;3.47;;
41255;SDS011;26989;45.524;10.938;2023-02-28T02:07:17;6.90;;;4.47;;
41255;SDS011;26989;45.524;10.938;2023-02-28T02:09:44;6.03;;;3.95;;
41255;SDS011;26989;45.524;10.938;2023-02-28T02:12:24;6.55;;;4.10;;
41255;SDS011;26989;45.524;10.938;2023-02-28T02:15:11;8.02;;;3.70;;
41255;SDS011;26989;45.524;10.938;2023-02-28T02:17:51;7.72;;;4.05;;
41255;SDS011;26989;45.524;10.938;2023-02-28T02:20:43;7.18;;;4.20;;
41255;SDS011;26989;45.524;10.938;2023-02-28T02:26:15;5.60;;;3.40;;
41255;SDS011;26989;45.524;10.938;2023-02-28T02:39:54;4.55;;;2.63;;
41255;SDS011;26989;45.524;10.938;2023-02-28T02:42:33;5.07;;;2.50;;
41255;SDS011;26989;45.524;10.938;2023-02-28T02:45:33;4.47;;;3.33;;
41255;SDS011;26989;45.524;10.938;2023-02-28T02:48:16;2.80;;;2.38;;
41255;SDS011;26989;45.524;10.938;2023-02-28T02:50:48;5.50;;;3.30;;
41255;SDS011;26989;45.524;10.938;2023-02-28T02:53:19;6.03;;;4.10;;
41255;SDS011;26989;45.524;10.938;2023-02-28T02:55:52;6.35;;;4.13;;
41255;SDS011;26989;45.524;10.938;2023-02-28T02:58:28;5.78;;;3.80;;
41255;SDS011;26989;45.524;10.938;2023-02-28T03:00:58;6.68;;;3.38;;
41255;SDS011;26989;45.524;10.938;2023-02-28T03:03:28;9.02;;;3.88;;
41255;SDS011;26989;45.524;10.938;2023-02-28T03:05:57;5.05;;;3.15;;
41255;SDS011;26989;45.524;10.938;2023-02-28T03:08:27;5.90;;;3.72;;
41255;SDS011;26989;45.524;10.938;2023-02-28T03:10:56;6.30;;;3.17;;
41255;SDS011;26989;45.524;10.938;2023-02-28T03:16:35;5.50;;;3.67;;
41255;SDS011;26989;45.524;10.938;2023-02-28T03:27:23;6.93;;;4.47;;
41255;SDS011;26989;45.524;10.938;2023-02-28T03:35:25;5.90;;;3.78;;
41255;SDS011;26989;45.524;10.938;2023-02-28T03:38:02;7.03;;;4.53;;
41255;SDS011;26989;45.524;10.938;2023-02-28T03:40:33;6.65;;;4.03;;
41255;SDS011;26989;45.524;10.938;2023-02-28T03:43:04;5.75;;;3.63;;
41255;SDS011;26989;45.524;10.938;2023-02-28T03:45:37;8.73;;;4.53;;
41255;SDS011;26989;45.524;10.938;2023-02-28T03:48:19;7.68;;;5.07;;
41255;SDS011;26989;45.524;10.938;2023-02-28T03:50:48;9.73;;;6.10;;
41255;SDS011;26989;45.524;10.938;2023-02-28T03:58:51;9.07;;;6.60;;
41255;SDS011;26989;45.524;10.938;2023-02-28T04:01:34;11.43;;;6.72;;
41255;SDS011;26989;45.524;10.938;2023-02-28T04:04:08;11.00;;;7.18;;
41255;SDS011;26989;45.524;10.938;2023-02-28T04:06:36;12.48;;;7.18;;
41255;SDS011;26989;45.524;10.938;2023-02-28T04:09:04;12.30;;;6.75;;
41255;SDS011;26989;45.524;10.938;2023-02-28T04:14:05;11.57;;;7.22;;
41255;SDS011;26989;45.524;10.938;2023-02-28T04:16:34;9.88;;;7.05;;
41255;SDS011;26989;45.524;10.938;2023-02-28T04:19:03;10.75;;;6.13;;
41255;SDS011;26989;45.524;10.938;2023-02-28T04:21:33;10.98;;;7.32;;
41255;SDS011;26989;45.524;10.938;2023-02-28T04:24:02;11.15;;;6.85;;
41255;SDS011;26989;45.524;10.938;2023-02-28T04:26:30;11.43;;;7.05;;
41255;SDS011;26989;45.524;10.938;2023-02-28T04:29:05;8.35;;;6.30;;
41255;SDS011;26989;45.524;10.938;2023-02-28T04:31:33;11.25;;;7.18;;
41255;SDS011;26989;45.524;10.938;2023-02-28T04:34:00;10.70;;;6.72;;
41255;SDS011;26989;45.524;10.938;2023-02-28T04:36:28;9.25;;;6.07;;
41255;SDS011;26989;45.524;10.938;2023-02-28T04:38:55;11.48;;;7.43;;
41255;SDS011;26989;45.524;10.938;2023-02-28T04:41:22;9.32;;;6.63;;
41255;SDS011;26989;45.524;10.938;2023-02-28T04:43:53;13.05;;;7.22;;
41255;SDS011;26989;45.524;10.938;2023-02-28T04:46:20;10.88;;;7.82;;
41255;SDS011;26989;45.524;10.938;2023-02-28T04:48:47;20.23;;;8.27;;
41255;SDS011;26989;45.524;10.938;2023-02-28T04:51:15;14.27;;;7.32;;
41255;SDS011;26989;45.524;10.938;2023-02-28T04:53:44;12.98;;;7.50;;
41255;SDS011;26989;45.524;10.938;2023-02-28T04:56:12;16.92;;;7.70;;
41255;SDS011;26989;45.524;10.938;2023-02-28T04:58:41;15.88;;;7.32;;
41255;SDS011;26989;45.524;10.938;2023-02-28T05:01:44;20.33;;;8.60;;
41255;SDS011;26989;45.524;10.938;2023-02-28T05:04:03;14.13;;;7.68;;
41255;SDS011;26989;45.524;10.938;2023-02-28T05:06:30;12.57;;;8.00;;
41255;SDS011;26989;45.524;10.938;2023-02-28T05:08:58;14.75;;;8.20;;
41255;SDS011;26989;45.524;10.938;2023-02-28T05:11:27;13.40;;;7.35;;
41255;SDS011;26989;45.524;10.938;2023-02-28T05:14:01;13.63;;;7.45;;
41255;SDS011;26989;45.524;10.938;2023-02-28T05:16:29;16.20;;;8.70;;
41255;SDS011;26989;45.524;10.938;2023-02-28T05:18:57;17.42;;;8.43;;
41255;SDS011;26989;45.524;10.938;2023-02-28T05:21:34;19.30;;;8.57;;
41255;SDS011;26989;45.524;10.938;2023-02-28T05:24:04;14.35;;;8.18;;
41255;SDS011;26989;45.524;10.938;2023-02-28T05:26:37;16.00;;;8.13;;
41255;SDS011;26989;45.524;10.938;2023-02-28T05:29:05;13.88;;;8.23;;
41255;SDS011;26989;45.524;10.938;2023-02-28T05:31:32;14.80;;;7.32;;
41255;SDS011;26989;45.524;10.938;2023-02-28T05:33:59;14.07;;;8.05;;
41255;SDS011;26989;45.524;10.938;2023-02-28T05:36:26;16.77;;;9.35;;
41255;SDS011;26989;45.524;10.938;2023-02-28T05:38:53;15.85;;;9.02;;
41255;SDS011;26989;45.524;10.938;2023-02-28T05:41:20;15.82;;;8.45;;
41255;SDS011;26989;45.524;10.938;2023-02-28T05:43:47;14.18;;;7.57;;
41255;SDS011;26989;45.524;10.938;2023-02-28T05:46:14;12.98;;;7.55;;
41255;SDS011;26989;45.524;10.938;2023-02-28T05:48:42;13.98;;;7.20;;
41255;SDS011;26989;45.524;10.938;2023-02-28T05:51:13;12.02;;;8.02;;
41255;SDS011;26989;45.524;10.938;2023-02-28T05:53:40;13.27;;;7.93;;
41255;SDS011;26989;45.524;10.938;2023-02-28T05:56:07;14.75;;;7.88;;
41255;SDS011;26989;45.524;10.938;2023-02-28T05:58:34;13.00;;;8.60;;
41255;SDS011;26989;45.524;10.938;2023-02-28T06:01:18;14.63;;;8.73;;
41255;SDS011;26989;45.524;10.938;2023-02-28T06:03:49;15.27;;;8.85;;
41255;SDS011;26989;45.524;10.938;2023-02-28T06:06:16;14.60;;;8.68;;
41255;SDS011;26989;45.524;10.938;2023-02-28T06:08:43;13.63;;;7.60;;
41255;SDS011;26989;45.524;10.938;2023-02-28T06:11:10;14.02;;;8.85;;
41255;SDS011;26989;45.524;10.938;2023-02-28T06:13:37;13.68;;;8.98;;
41255;SDS011;26989;45.524;10.938;2023-02-28T06:16:04;16.15;;;7.88;;
41255;SDS011;26989;45.524;10.938;2023-02-28T06:18:31;17.33;;;9.07;;
41255;SDS011;26989;45.524;10.938;2023-02-28T06:20:58;17.27;;;8.60;;
41255;SDS011;26989;45.524;10.938;2023-02-28T06:23:25;19.63;;;8.93;;
41255;SDS011;26989;45.524;10.938;2023-02-28T06:25:52;22.88;;;10.05;;
41255;SDS011;26989;45.524;10.938;2023-02-28T06:28:19;15.40;;;9.02;;
41255;SDS011;26989;45.524;10.938;2023-02-28T06:30:46;16.13;;;8.82;;
41255;SDS011;26989;45.524;10.938;2023-02-28T06:33:13;14.45;;;9.15;;
41255;SDS011;26989;45.524;10.938;2023-02-28T06:35:42;15.50;;;9.05;;
41255;SDS011;26989;45.524;10.938;2023-02-28T06:38:10;14.68;;;8.43;;
41255;SDS011;26989;45.524;10.938;2023-02-28T06:40:37;16.17;;;8.82;;
41255;SDS011;26989;45.524;10.938;2023-02-28T06:43:04;14.07;;;8.45;;
41255;SDS011;26989;45.524;10.938;2023-02-28T06:45:31;13.10;;;7.45;;
41255;SDS011;26989;45.524;10.938;2023-02-28T06:47:58;16.13;;;7.50;;
41255;SDS011;26989;45.524;10.938;2023-02-28T06:50:26;17.40;;;9.00;;
41255;SDS011;26989;45.524;10.938;2023-02-28T06:52:55;15.90;;;9.00;;
41255;SDS011;26989;45.524;10.938;2023-02-28T06:55:22;19.23;;;8.40;;
41255;SDS011;26989;45.524;10.938;2023-02-28T06:57:49;13.48;;;8.80;;
41255;SDS011;26989;45.524;10.938;2023-02-28T07:00:16;18.05;;;8.93;;
41255;SDS011;26989;45.524;10.938;2023-02-28T07:02:43;16.45;;;9.73;;
41255;SDS011;26989;45.524;10.938;2023-02-28T07:05:10;15.95;;;9.15;;
41255;SDS011;26989;45.524;10.938;2023-02-28T07:07:37;22.13;;;10.27;;
41255;SDS011;26989;45.524;10.938;2023-02-28T07:10:06;18.45;;;10.25;;
41255;SDS011;26989;45.524;10.938;2023-02-28T07:12:34;15.23;;;9.18;;
41255;SDS011;26989;45.524;10.938;2023-02-28T07:15:02;24.58;;;8.93;;
41255;SDS011;26989;45.524;10.938;2023-02-28T07:17:30;16.00;;;9.35;;
41255;SDS011;26989;45.524;10.938;2023-02-28T07:19:57;15.70;;;8.77;;
41255;SDS011;26989;45.524;10.938;2023-02-28T07:22:24;14.45;;;8.43;;
41255;SDS011;26989;45.524;10.938;2023-02-28T07:24:51;14.00;;;8.32;;
41255;SDS011;26989;45.524;10.938;2023-02-28T07:27:18;15.40;;;8.38;;
41255;SDS011;26989;45.524;10.938;2023-02-28T07:29:49;17.75;;;8.30;;
41255;SDS011;26989;45.524;10.938;2023-02-28T07:32:16;11.05;;;6.57;;
41255;SDS011;26989;45.524;10.938;2023-02-28T07:34:44;13.52;;;8.07;;
41255;SDS011;26989;45.524;10.938;2023-02-28T07:37:11;13.48;;;8.68;;
41255;SDS011;26989;45.524;10.938;2023-02-28T07:39:39;14.88;;;9.25;;
41255;SDS011;26989;45.524;10.938;2023-02-28T07:42:08;13.88;;;8.43;;
41255;SDS011;26989;45.524;10.938;2023-02-28T07:44:40;12.07;;;7.50;;
41255;SDS011;26989;45.524;10.938;2023-02-28T07:47:09;13.10;;;8.65;;
41255;SDS011;26989;45.524;10.938;2023-02-28T07:49:36;12.23;;;8.00;;
41255;SDS011;26989;45.524;10.938;2023-02-28T07:52:06;16.25;;;9.02;;
41255;SDS011;26989;45.524;10.938;2023-02-28T07:54:36;14.13;;;8.68;;
41255;SDS011;26989;45.524;10.938;2023-02-28T07:57:02;16.88;;;9.80;;
41255;SDS011;26989;45.524;10.938;2023-02-28T07:59:29;13.85;;;8.45;;
41255;SDS011;26989;45.524;10.938;2023-02-28T08:01:57;16.20;;;9.43;;
41255;SDS011;26989;45.524;10.938;2023-02-28T08:04:25;12.10;;;8.57;;
41255;SDS011;26989;45.524;10.938;2023-02-28T08:06:52;14.05;;;8.45;;
41255;SDS011;26989;45.524;10.938;2023-02-28T08:09:19;12.40;;;8.95;;
41255;SDS011;26989;45.524;10.938;2023-02-28T08:11:46;46.13;;;16.33;;
41255;SDS011;26989;45.524;10.938;2023-02-28T08:14:13;22.10;;;11.73;;
41255;SDS011;26989;45.524;10.938;2023-02-28T08:16:40;25.90;;;12.25;;
41255;SDS011;26989;45.524;10.938;2023-02-28T08:19:06;14.73;;;9.15;;
41255;SDS011;26989;45.524;10.938;2023-02-28T08:21:33;14.02;;;8.88;;
41255;SDS011;26989;45.524;10.938;2023-02-28T08:24:00;13.45;;;8.70;;
41255;SDS011;26989;45.524;10.938;2023-02-28T08:26:27;17.63;;;8.75;;
41255;SDS011;26989;45.524;10.938;2023-02-28T08:28:54;15.98;;;8.43;;
41255;SDS011;26989;45.524;10.938;2023-02-28T08:31:23;12.25;;;8.60;;
41255;SDS011;26989;45.524;10.938;2023-02-28T08:33:50;15.40;;;8.48;;
41255;SDS011;26989;45.524;10.938;2023-02-28T08:36:19;14.10;;;8.55;;
41255;SDS011;26989;45.524;10.938;2023-02-28T08:38:46;12.95;;;8.65;;
41255;SDS011;26989;45.524;10.938;2023-02-28T08:41:13;16.67;;;9.95;;
41255;SDS011;26989;45.524;10.938;2023-02-28T08:43:40;13.48;;;8.82;;
41255;SDS011;26989;45.524;10.938;2023-02-28T08:46:07;12.73;;;8.73;;
41255;SDS011;26989;45.524;10.938;2023-02-28T08:48:37;12.68;;;8.55;;
41255;SDS011;26989;45.524;10.938;2023-02-28T08:51:05;16.15;;;8.68;;
41255;SDS011;26989;45.524;10.938;2023-02-28T08:53:37;13.90;;;9.10;;
41255;SDS011;26989;45.524;10.938;2023-02-28T08:56:06;13.35;;;8.60;;
41255;SDS011;26989;45.524;10.938;2023-02-28T08:58:35;13.20;;;8.40;;
41255;SDS011;26989;45.524;10.938;2023-02-28T09:03:35;15.52;;;9.00;;
41255;SDS011;26989;45.524;10.938;2023-02-28T09:06:02;15.27;;;8.60;;
41255;SDS011;26989;45.524;10.938;2023-02-28T09:08:31;16.55;;;9.80;;
41255;SDS011;26989;45.524;10.938;2023-02-28T09:10:58;13.70;;;9.10;;
41255;SDS011;26989;45.524;10.938;2023-02-28T09:13:27;13.88;;;8.70;;
41255;SDS011;26989;45.524;10.938;2023-02-28T09:15:57;13.25;;;8.68;;
41255;SDS011;26989;45.524;10.938;2023-02-28T09:18:25;13.82;;;9.05;;
41255;SDS011;26989;45.524;10.938;2023-02-28T09:20:53;16.52;;;9.18;;
41255;SDS011;26989;45.524;10.938;2023-02-28T09:23:20;14.13;;;9.00;;
41255;SDS011;26989;45.524;10.938;2023-02-28T09:25:48;14.07;;;9.73;;
41255;SDS011;26989;45.524;10.938;2023-02-28T09:30:48;12.75;;;9.13;;
41255;SDS011;26989;45.524;10.938;2023-02-28T09:33:17;13.80;;;8.60;;
41255;SDS011;26989;45.524;10.938;2023-02-28T09:35:47;12.55;;;7.68;;
41255;SDS011;26989;45.524;10.938;2023-02-28T09:38:15;12.85;;;9.25;;
41255;SDS011;26989;45.524;10.938;2023-02-28T09:40:49;11.75;;;8.10;;
41255;SDS011;26989;45.524;10.938;2023-02-28T09:43:23;11.70;;;8.18;;
41255;SDS011;26989;45.524;10.938;2023-02-28T09:45:54;12.70;;;8.30;;
41255;SDS011;26989;45.524;10.938;2023-02-28T09:48:28;15.70;;;8.73;;
41255;SDS011;26989;45.524;10.938;2023-02-28T09:51:05;12.40;;;8.93;;
41255;SDS011;26989;45.524;10.938;2023-02-28T09:53:37;11.98;;;8.68;;
41255;SDS011;26989;45.524;10.938;2023-02-28T09:56:10;14.70;;;9.02;;
41255;SDS011;26989;45.524;10.938;2023-02-28T09:59:03;14.55;;;8.93;;
41255;SDS011;26989;45.524;10.938;2023-02-28T10:01:43;11.65;;;8.20;;
41255;SDS011;26989;45.524;10.938;2023-02-28T10:04:16;12.98;;;8.00;;
41255;SDS011;26989;45.524;10.938;2023-02-28T10:07:04;13.48;;;8.32;;
41255;SDS011;26989;45.524;10.938;2023-02-28T10:09:48;15.82;;;7.80;;
41255;SDS011;26989;45.524;10.938;2023-02-28T10:12:19;11.98;;;7.43;;
41255;SDS011;26989;45.524;10.938;2023-02-28T10:14:49;13.55;;;9.68;;
41255;SDS011;26989;45.524;10.938;2023-02-28T10:17:23;11.48;;;7.72;;
41255;SDS011;26989;45.524;10.938;2023-02-28T10:22:35;13.65;;;8.25;;
41255;SDS011;26989;45.524;10.938;2023-02-28T10:25:11;12.18;;;7.80;;
41255;SDS011;26989;45.524;10.938;2023-02-28T10:27:47;11.95;;;8.00;;
41255;SDS011;26989;45.524;10.938;2023-02-28T10:30:16;11.20;;;7.93;;
41255;SDS011;26989;45.524;10.938;2023-02-28T10:32:47;15.75;;;9.35;;
41255;SDS011;26989;45.524;10.938;2023-02-28T10:35:20;12.60;;;8.02;;
41255;SDS011;26989;45.524;10.938;2023-02-28T10:37:53;10.20;;;7.25;;
41255;SDS011;26989;45.524;10.938;2023-02-28T10:42:58;54.00;;;11.90;;
41255;SDS011;26989;45.524;10.938;2023-02-28T10:45:28;10.43;;;7.60;;
41255;SDS011;26989;45.524;10.938;2023-02-28T10:50:37;10.52;;;7.57;;
41255;SDS011;26989;45.524;10.938;2023-02-28T10:56:25;14.75;;;7.22;;
41255;SDS011;26989;45.524;10.938;2023-02-28T10:58:54;13.07;;;7.53;;
41255;SDS011;26989;45.524;10.938;2023-02-28T11:01:41;11.50;;;6.57;;
41255;SDS011;26989;45.524;10.938;2023-02-28T11:04:31;11.48;;;7.13;;
41255;SDS011;26989;45.524;10.938;2023-02-28T11:07:03;9.88;;;6.25;;
41255;SDS011;26989;45.524;10.938;2023-02-28T11:09:31;11.77;;;6.15;;
41255;SDS011;26989;45.524;10.938;2023-02-28T11:12:04;11.80;;;6.72;;
41255;SDS011;26989;45.524;10.938;2023-02-28T11:14:47;10.73;;;6.47;;
41255;SDS011;26989;45.524;10.938;2023-02-28T11:17:27;10.25;;;6.53;;
41255;SDS011;26989;45.524;10.938;2023-02-28T11:20:00;11.85;;;6.90;;
41255;SDS011;26989;45.524;10.938;2023-02-28T11:22:31;9.65;;;6.78;;
41255;SDS011;26989;45.524;10.938;2023-02-28T11:25:06;10.02;;;6.75;;
41255;SDS011;26989;45.524;10.938;2023-02-28T11:30:03;10.73;;;6.97;;
41255;SDS011;26989;45.524;10.938;2023-02-28T11:32:48;11.57;;;6.68;;
41255;SDS011;26989;45.524;10.938;2023-02-28T11:35:38;10.73;;;6.22;;
41255;SDS011;26989;45.524;10.938;2023-02-28T11:38:07;11.65;;;7.10;;
41255;SDS011;26989;45.524;10.938;2023-02-28T11:43:30;10.57;;;6.97;;
41255;SDS011;26989;45.524;10.938;2023-02-28T11:46:29;12.65;;;6.60;;
41255;SDS011;26989;45.524;10.938;2023-02-28T11:51:55;9.57;;;6.90;;
41255;SDS011;26989;45.524;10.938;2023-02-28T12:13:51;11.73;;;6.80;;
41255;SDS011;26989;45.524;10.938;2023-02-28T12:16:46;13.20;;;7.57;;
41255;SDS011;26989;45.524;10.938;2023-02-28T12:22:30;11.40;;;7.18;;
41255;SDS011;26989;45.524;10.938;2023-02-28T12:28:10;11.43;;;7.88;;
41255;SDS011;26989;45.524;10.938;2023-02-28T12:30:47;12.13;;;8.10;;
41255;SDS011;26989;45.524;10.938;2023-02-28T12:33:32;13.02;;;8.32;;
41255;SDS011;26989;45.524;10.938;2023-02-28T12:36:04;16.23;;;8.55;;
41255;SDS011;26989;45.524;10.938;2023-02-28T12:39:20;12.02;;;7.68;;
41255;SDS011;26989;45.524;10.938;2023-02-28T12:41:33;11.70;;;8.10;;
41255;SDS011;26989;45.524;10.938;2023-02-28T12:44:15;17.50;;;10.25;;
41255;SDS011;26989;45.524;10.938;2023-02-28T12:46:48;14.55;;;9.85;;
41255;SDS011;26989;45.524;10.938;2023-02-28T12:50:03;15.30;;;10.10;;
41255;SDS011;26989;45.524;10.938;2023-02-28T12:53:11;16.65;;;9.45;;
41255;SDS011;26989;45.524;10.938;2023-02-28T12:55:27;12.63;;;8.32;;
41255;SDS011;26989;45.524;10.938;2023-02-28T13:03:54;15.70;;;10.18;;
41255;SDS011;26989;45.524;10.938;2023-02-28T13:09:39;12.88;;;8.20;;
41255;SDS011;26989;45.524;10.938;2023-02-28T13:12:13;11.50;;;8.52;;
41255;SDS011;26989;45.524;10.938;2023-02-28T13:14:42;13.07;;;7.95;;
41255;SDS011;26989;45.524;10.938;2023-02-28T13:19:42;13.35;;;8.07;;
41255;SDS011;26989;45.524;10.938;2023-02-28T13:26:06;17.33;;;8.98;;
41255;SDS011;26989;45.524;10.938;2023-02-28T13:28:11;10.98;;;7.80;;
41255;SDS011;26989;45.524;10.938;2023-02-28T13:35:53;13.90;;;8.75;;
41255;SDS011;26989;45.524;10.938;2023-02-28T13:38:57;14.32;;;8.75;;
41255;SDS011;26989;45.524;10.938;2023-02-28T13:46:29;13.70;;;8.52;;
41255;SDS011;26989;45.524;10.938;2023-02-28T13:49:11;12.25;;;8.57;;
41255;SDS011;26989;45.524;10.938;2023-02-28T13:51:47;15.45;;;9.25;;
41255;SDS011;26989;45.524;10.938;2023-02-28T14:02:48;14.82;;;9.63;;
41255;SDS011;26989;45.524;10.938;2023-02-28T14:05:32;19.65;;;10.35;;
41255;SDS011;26989;45.524;10.938;2023-02-28T14:10:48;15.80;;;9.15;;
41255;SDS011;26989;45.524;10.938;2023-02-28T14:16:15;16.15;;;10.00;;
41255;SDS011;26989;45.524;10.938;2023-02-28T14:19:09;22.00;;;11.15;;
41255;SDS011;26989;45.524;10.938;2023-02-28T14:38:11;13.95;;;9.35;;
41255;SDS011;26989;45.524;10.938;2023-02-28T14:40:45;17.17;;;9.25;;
41255;SDS011;26989;45.524;10.938;2023-02-28T14:43:23;15.95;;;9.35;;
41255;SDS011;26989;45.524;10.938;2023-02-28T14:45:55;12.70;;;8.82;;
41255;SDS011;26989;45.524;10.938;2023-02-28T14:48:25;14.70;;;9.68;;
41255;SDS011;26989;45.524;10.938;2023-02-28T14:50:58;15.75;;;10.48;;
41255;SDS011;26989;45.524;10.938;2023-02-28T14:53:30;16.40;;;10.82;;
41255;SDS011;26989;45.524;10.938;2023-02-28T14:56:02;21.63;;;10.48;;
41255;SDS011;26989;45.524;10.938;2023-02-28T14:58:30;21.85;;;12.27;;
41255;SDS011;26989;45.524;10.938;2023-02-28T15:01:00;14.85;;;10.23;;
41255;SDS011;26989;45.524;10.938;2023-02-28T15:06:03;40.28;;;21.80;;
41255;SDS011;26989;45.524;10.938;2023-02-28T15:08:32;42.05;;;22.13;;
41255;SDS011;26989;45.524;10.938;2023-02-28T15:11:04;25.55;;;11.80;;
41255;SDS011;26989;45.524;10.938;2023-02-28T15:13:44;15.05;;;9.13;;
41255;SDS011;26989;45.524;10.938;2023-02-28T15:18:59;22.20;;;13.82;;
41255;SDS011;26989;45.524;10.938;2023-02-28T15:21:31;18.30;;;12.18;;
41255;SDS011;26989;45.524;10.938;2023-02-28T15:26:53;21.90;;;14.00;;
41255;SDS011;26989;45.524;10.938;2023-02-28T15:29:24;24.02;;;14.15;;
41255;SDS011;26989;45.524;10.938;2023-02-28T15:34:35;23.80;;;15.57;;
41255;SDS011;26989;45.524;10.938;2023-02-28T15:37:28;18.63;;;10.90;;
41255;SDS011;26989;45.524;10.938;2023-02-28T15:40:10;17.70;;;10.85;;
41255;SDS011;26989;45.524;10.938;2023-02-28T15:45:41;17.40;;;10.80;;
41255;SDS011;26989;45.524;10.938;2023-02-28T15:48:13;21.02;;;10.52;;
41255;SDS011;26989;45.524;10.938;2023-02-28T15:50:47;15.45;;;9.32;;
41255;SDS011;26989;45.524;10.938;2023-02-28T15:53:24;18.20;;;10.60;;
41255;SDS011;26989;45.524;10.938;2023-02-28T15:55:58;19.55;;;11.88;;
41255;SDS011;26989;45.524;10.938;2023-02-28T15:58:28;22.17;;;10.97;;
41255;SDS011;26989;45.524;10.938;2023-02-28T16:01:04;18.00;;;10.35;;
41255;SDS011;26989;45.524;10.938;2023-02-28T16:03:49;18.92;;;10.40;;
41255;SDS011;26989;45.524;10.938;2023-02-28T16:06:21;17.15;;;9.77;;
41255;SDS011;26989;45.524;10.938;2023-02-28T16:09:04;14.60;;;9.80;;
41255;SDS011;26989;45.524;10.938;2023-02-28T16:11:35;16.95;;;10.75;;
41255;SDS011;26989;45.524;10.938;2023-02-28T16:14:05;19.17;;;10.23;;
41255;SDS011;26989;45.524;10.938;2023-02-28T16:16:32;17.45;;;9.98;;
41255;SDS011;26989;45.524;10.938;2023-02-28T16:18:59;17.02;;;10.32;;
41255;SDS011;26989;45.524;10.938;2023-02-28T16:21:26;16.02;;;10.23;;
41255;SDS011;26989;45.524;10.938;2023-02-28T16:23:54;18.48;;;11.32;;
41255;SDS011;26989;45.524;10.938;2023-02-28T16:26:23;16.33;;;10.23;;
41255;SDS011;26989;45.524;10.938;2023-02-28T16:28:53;18.27;;;11.10;;
41255;SDS011;26989;45.524;10.938;2023-02-28T16:31:20;19.60;;;10.07;;
41255;SDS011;26989;45.524;10.938;2023-02-28T16:33:47;26.15;;;12.02;;
41255;SDS011;26989;45.524;10.938;2023-02-28T16:36:18;21.48;;;11.95;;
41255;SDS011;26989;45.524;10.938;2023-02-28T16:38:47;31.45;;;13.63;;
41255;SDS011;26989;45.524;10.938;2023-02-28T16:41:18;23.13;;;12.85;;
41255;SDS011;26989;45.524;10.938;2023-02-28T16:43:47;23.73;;;11.90;;
41255;SDS011;26989;45.524;10.938;2023-02-28T16:46:16;20.70;;;11.55;;
41255;SDS011;26989;45.524;10.938;2023-02-28T16:48:44;23.85;;;11.45;;
41255;SDS011;26989;45.524;10.938;2023-02-28T16:51:12;17.20;;;10.98;;
41255;SDS011;26989;45.524;10.938;2023-02-28T16:53:40;21.85;;;11.60;;
41255;SDS011;26989;45.524;10.938;2023-02-28T16:56:15;27.33;;;11.60;;
41255;SDS011;26989;45.524;10.938;2023-02-28T16:58:48;27.40;;;13.55;;
41255;SDS011;26989;45.524;10.938;2023-02-28T17:01:16;32.58;;;15.57;;
41255;SDS011;26989;45.524;10.938;2023-02-28T17:03:48;37.70;;;17.30;;
41255;SDS011;26989;45.524;10.938;2023-02-28T17:06:19;31.85;;;16.63;;
41255;SDS011;26989;45.524;10.938;2023-02-28T17:08:51;31.65;;;18.55;;
41255;SDS011;26989;45.524;10.938;2023-02-28T17:11:18;38.05;;;18.60;;
41255;SDS011;26989;45.524;10.938;2023-02-28T17:13:45;36.53;;;17.77;;
41255;SDS011;26989;45.524;10.938;2023-02-28T17:18:43;47.33;;;23.83;;
41255;SDS011;26989;45.524;10.938;2023-02-28T17:21:14;31.85;;;17.85;;
41255;SDS011;26989;45.524;10.938;2023-02-28T17:23:42;32.35;;;16.95;;
41255;SDS011;26989;45.524;10.938;2023-02-28T17:26:12;36.67;;;16.27;;